Time;durP1;ratioP1;P1;durP2;ratioP2;P2;SDS_P1;SDS_P2;PMS_P1;PMS_P2;Temp;Humidity;BMP_temperature;BMP_pressure;BME280_temperature;BME280_humidity;BME280_pressure;Samples;Min_cycle;Max_cycle;Signal;HPM_P1;HPM_P2
2022/12/07 00:00:54;;;;;;;13.20;2.90;;;3.30;99.90;;;;;;5001793;28;20100;-61
2022/12/07 00:03:19;;;;;;;12.45;2.97;;;3.80;99.90;;;;;;5002145;28;20592;-61
2022/12/07 00:05:45;;;;;;;11.55;2.67;;;3.10;99.90;;;;;;4995633;28;20056;-61
2022/12/07 00:08:10;;;;;;;8.65;2.40;;;3.30;99.90;;;;;;4982549;28;20081;-61
2022/12/07 00:10:36;;;;;;;12.70;2.92;;;3.80;99.90;;;;;;4982487;28;20108;-61
2022/12/07 00:13:02;;;;;;;6.18;2.05;;;3.10;99.90;;;;;;4983923;28;20031;-61
2022/12/07 00:15:28;;;;;;;8.38;2.50;;;3.30;99.90;;;;;;4984100;28;20119;-61
2022/12/07 00:17:53;;;;;;;10.23;2.28;;;3.60;99.90;;;;;;4983190;28;20552;-61
2022/12/07 00:20:20;;;;;;;10.30;2.00;;;3.50;99.90;;;;;;4982915;28;20050;-61
2022/12/07 00:22:46;;;;;;;6.53;1.80;;;3.20;99.90;;;;;;4983860;28;20046;-60
2022/12/07 00:25:11;;;;;;;9.52;1.50;;;3.80;99.90;;;;;;4983430;28;20046;-61
2022/12/07 00:27:37;;;;;;;10.23;2.10;;;3.50;99.90;;;;;;4983707;28;20485;-60
2022/12/07 00:30:03;;;;;;;7.53;1.55;;;3.30;99.90;;;;;;4983039;28;20038;-61
2022/12/07 00:32:28;;;;;;;5.82;1.83;;;3.50;99.90;;;;;;4983351;28;20057;-61
2022/12/07 00:34:54;;;;;;;6.25;1.70;;;3.60;99.90;;;;;;4983364;28;20451;-61
2022/12/07 00:37:19;;;;;;;9.43;1.65;;;3.80;99.90;;;;;;4981590;28;20085;-60
2022/12/07 00:39:46;;;;;;;6.28;1.40;;;3.90;99.90;;;;;;4982857;28;20248;-60
2022/12/07 00:42:11;;;;;;;6.13;1.30;;;4.10;99.90;;;;;;4983403;28;20053;-60
2022/12/07 00:44:37;;;;;;;9.38;1.90;;;3.70;99.90;;;;;;4982659;28;20058;-60
2022/12/07 00:47:03;;;;;;;8.35;1.20;;;3.40;99.90;;;;;;4981815;28;20125;-61
2022/12/07 00:49:28;;;;;;;6.97;1.10;;;3.80;99.90;;;;;;4983046;28;20105;-61
2022/12/07 00:51:54;;;;;;;7.75;1.30;;;3.90;99.90;;;;;;4982815;28;20050;-60
2022/12/07 00:54:20;;;;;;;5.15;1.02;;;3.50;99.90;;;;;;4982953;28;20073;-61
2022/12/07 00:56:45;;;;;;;7.63;1.27;;;4.20;99.90;;;;;;4982296;28;20043;-60
2022/12/07 00:59:14;;;;;;;4.25;1.13;;;3.90;99.90;;;;;;4982846;28;20495;-61
2022/12/07 01:01:39;;;;;;;8.30;0.95;;;4.20;99.90;;;;;;4983028;28;20050;-60
2022/12/07 01:04:05;;;;;;;7.10;1.10;;;4.00;99.90;;;;;;4984173;28;20045;-60
2022/12/07 01:06:31;;;;;;;7.07;1.20;;;4.10;99.90;;;;;;4991162;28;20042;-59
2022/12/07 01:08:58;;;;;;;5.05;0.80;;;3.70;99.90;;;;;;4981288;28;20042;-60
2022/12/07 01:11:26;;;;;;;7.45;1.20;;;3.80;99.90;;;;;;4982548;28;20042;-60
2022/12/07 01:13:54;;;;;;;4.50;0.95;;;3.90;99.90;;;;;;4981921;28;20489;-60
2022/12/07 01:16:21;;;;;;;6.85;1.02;;;3.90;99.90;;;;;;4982945;28;20307;-60
2022/12/07 01:18:49;;;;;;;6.75;0.95;;;4.30;99.90;;;;;;4982168;28;20051;-61
2022/12/07 01:21:20;;;;;;;6.80;1.10;;;4.00;99.90;;;;;;4982612;28;20100;-61
2022/12/07 01:23:47;;;;;;;7.15;1.30;;;3.80;99.90;;;;;;4982646;28;20501;-60
2022/12/07 01:26:16;;;;;;;5.15;1.08;;;3.70;99.90;;;;;;4982782;28;20048;-61
2022/12/07 01:28:43;;;;;;;8.02;1.00;;;4.40;99.90;;;;;;4982732;28;20046;-61
2022/12/07 01:31:17;;;;;;;8.30;1.30;;;3.90;99.90;;;;;;4980783;28;20054;-60
2022/12/07 01:33:46;;;;;;;5.40;1.00;;;3.80;99.90;;;;;;4982265;28;20130;-60
2022/12/07 01:36:17;;;;;;;10.38;1.80;;;3.80;99.90;;;;;;4981693;28;20058;-58
2022/12/07 01:38:44;;;;;;;8.73;1.20;;;4.10;99.90;;;;;;4981817;28;20050;-60
2022/12/07 01:41:11;;;;;;;9.23;1.30;;;4.10;99.90;;;;;;4982687;28;20046;-61
2022/12/07 01:43:36;;;;;;;10.80;1.25;;;4.10;99.90;;;;;;4982202;28;20054;-61
2022/12/07 01:46:04;;;;;;;5.05;1.15;;;4.30;99.90;;;;;;4981938;28;20050;-60
2022/12/07 01:48:41;;;;;;;8.75;1.17;;;3.70;99.90;;;;;;4981756;28;20062;-60
2022/12/07 01:51:13;;;;;;;9.88;1.60;;;3.90;99.90;;;;;;4981458;28;20490;-61
2022/12/07 01:53:44;;;;;;;8.25;1.30;;;4.00;99.90;;;;;;4981370;28;20333;-60
2022/12/07 01:56:15;;;;;;;5.85;1.00;;;3.80;99.90;;;;;;4982410;28;20074;-60
2022/12/07 01:58:41;;;;;;;9.75;1.40;;;4.00;99.90;;;;;;4982258;28;20050;-59
2022/12/07 02:01:07;;;;;;;7.82;1.35;;;4.00;99.90;;;;;;4982050;28;20042;-61
2022/12/07 02:03:38;;;;;;;7.35;1.35;;;4.10;99.90;;;;;;4981575;28;20034;-61
2022/12/07 02:06:05;;;;;;;8.73;1.30;;;3.80;99.90;;;;;;4993514;28;20081;-60
2022/12/07 02:11:07;;;;;;;7.05;1.23;;;3.80;99.90;;;;;;4958011;28;20125;-60
2022/12/07 02:13:36;;;;;;;8.10;1.35;;;4.00;99.90;;;;;;4967651;28;20138;-60
2022/12/07 02:16:37;;;;;;;7.57;1.15;;;4.20;99.90;;;;;;4961510;28;20043;-61
2022/12/07 02:19:15;;;;;;;9.20;1.17;;;3.90;99.90;;;;;;4959416;28;20544;-61
2022/12/07 02:21:52;;;;;;;7.55;1.48;;;4.10;99.90;;;;;;4961149;28;20086;-61
2022/12/07 02:24:54;;;;;;;5.47;1.10;;;3.90;99.90;;;;;;4963895;28;20057;-61
2022/12/07 02:27:50;;;;;;;6.25;1.02;;;4.00;99.90;;;;;;4966381;28;20117;-60
2022/12/07 02:30:23;;;;;;;13.18;1.20;;;4.10;99.90;;;;;;4966478;28;20054;-61
2022/12/07 02:33:13;;;;;;;7.90;1.42;;;3.90;99.90;;;;;;4966293;28;20085;-60
2022/12/07 02:35:54;;;;;;;6.70;1.08;;;4.30;99.90;;;;;;4966519;28;20066;-60
2022/12/07 02:38:25;;;;;;;7.15;1.52;;;3.60;99.90;;;;;;4966844;28;20046;-60
2022/12/07 02:41:00;;;;;;;7.13;1.02;;;4.20;99.90;;;;;;4966045;28;20126;-61
2022/12/07 02:43:34;;;;;;;6.55;1.25;;;3.80;99.90;;;;;;4965913;28;20047;-60
2022/12/07 02:46:05;;;;;;;6.25;0.93;;;4.00;99.90;;;;;;4965656;28;20053;-61
2022/12/07 02:51:18;;;;;;;7.70;1.40;;;3.50;99.90;;;;;;4966112;28;20066;-61
2022/12/07 02:53:45;;;;;;;6.28;1.23;;;3.20;99.90;;;;;;4964983;28;20069;-61
2022/12/07 02:56:31;;;;;;;6.07;0.98;;;3.30;99.90;;;;;;4966094;28;20070;-60
2022/12/07 02:58:57;;;;;;;9.35;1.27;;;3.20;99.90;;;;;;4965391;28;20046;-61
2022/12/07 03:01:31;;;;;;;4.80;1.15;;;3.30;99.90;;;;;;4965902;28;20460;-60
2022/12/07 03:04:41;;;;;;;10.13;1.00;;;3.30;99.90;;;;;;4963811;28;20039;-60
2022/12/07 03:07:32;;;;;;;10.35;1.20;;;3.10;99.90;;;;;;4914769;28;20043;-61
2022/12/07 03:10:10;;;;;;;5.40;0.77;;;3.00;99.90;;;;;;4946445;28;20303;-61
2022/12/07 03:13:07;;;;;;;6.97;0.85;;;3.90;99.90;;;;;;4946359;29;20043;-60
2022/12/07 03:16:05;;;;;;;9.07;1.58;;;3.10;99.90;;;;;;4931317;28;21056;-61
2022/12/07 03:18:35;;;;;;;11.45;1.38;;;3.40;99.90;;;;;;4942175;29;20055;-60
2022/12/07 03:21:08;;;;;;;6.93;1.45;;;3.50;99.90;;;;;;4945987;28;20046;-60
2022/12/07 03:23:38;;;;;;;7.82;1.10;;;3.40;99.90;;;;;;4945186;28;20105;-61
2022/12/07 03:26:06;;;;;;;6.18;1.23;;;3.30;99.90;;;;;;4945601;28;20662;-60
2022/12/07 03:28:36;;;;;;;7.30;1.05;;;3.30;99.90;;;;;;4954913;28;20042;-60
2022/12/07 03:31:28;;;;;;;10.35;1.20;;;4.10;99.90;;;;;;4965131;28;20042;-61
2022/12/07 03:34:14;;;;;;;8.15;1.00;;;3.30;99.90;;;;;;4964754;28;20055;-61
2022/12/07 03:36:55;;;;;;;5.20;1.00;;;3.50;99.90;;;;;;4963173;28;20058;-61
2022/12/07 03:39:38;;;;;;;8.93;1.33;;;3.30;99.90;;;;;;4965279;28;20055;-60
2022/12/07 03:42:06;;;;;;;10.25;1.00;;;3.20;99.90;;;;;;4964311;28;20046;-60
2022/12/07 03:44:35;;;;;;;7.47;1.52;;;3.30;99.90;;;;;;4965163;28;20433;-61
2022/12/07 03:47:12;;;;;;;9.95;1.23;;;3.90;99.90;;;;;;4964356;28;20078;-60
2022/12/07 03:49:50;;;;;;;8.77;1.58;;;3.10;99.90;;;;;;4964131;28;20371;-60
2022/12/07 03:52:22;;;;;;;9.50;1.08;;;3.40;99.90;;;;;;4964319;28;20118;-60
2022/12/07 03:55:03;;;;;;;5.95;0.80;;;3.80;99.90;;;;;;4963687;28;20109;-60
2022/12/07 03:57:31;;;;;;;9.20;1.05;;;3.30;99.90;;;;;;4964333;28;20055;-60
2022/12/07 03:59:58;;;;;;;5.18;0.75;;;3.60;99.90;;;;;;4963044;28;20363;-60
2022/12/07 04:02:26;;;;;;;6.63;0.80;;;3.30;99.90;;;;;;4961917;28;20055;-60
2022/12/07 04:04:52;;;;;;;6.50;1.15;;;3.20;99.90;;;;;;4958190;28;20055;-60
2022/12/07 04:07:17;;;;;;;6.53;1.00;;;3.00;99.90;;;;;;4951050;28;20070;-60
2022/12/07 04:09:43;;;;;;;4.90;0.93;;;3.40;99.90;;;;;;4943767;29;20067;-60
2022/12/07 04:12:09;;;;;;;6.38;1.05;;;3.30;99.90;;;;;;4944516;29;20059;-61
2022/12/07 04:14:34;;;;;;;5.32;0.95;;;3.10;99.90;;;;;;4944755;29;20117;-61
2022/12/07 04:17:00;;;;;;;8.32;1.27;;;3.20;99.90;;;;;;4944195;29;20761;-61
2022/12/07 04:19:31;;;;;;;7.68;0.82;;;3.50;99.90;;;;;;4944503;29;20387;-60
2022/12/07 04:21:58;;;;;;;10.55;0.90;;;3.40;99.90;;;;;;4945500;28;20039;-60
2022/12/07 04:24:25;;;;;;;8.05;0.90;;;3.50;99.90;;;;;;4945042;28;20126;-60
2022/12/07 04:26:50;;;;;;;7.55;0.95;;;3.10;99.90;;;;;;4945275;28;20062;-60
2022/12/07 04:29:17;;;;;;;5.13;0.70;;;3.80;99.90;;;;;;4943140;29;20197;-61
2022/12/07 04:31:43;;;;;;;9.77;1.20;;;3.50;99.90;;;;;;4944471;29;20098;-61
2022/12/07 04:34:09;;;;;;;5.88;1.00;;;3.30;99.90;;;;;;4944215;28;20047;-60
2022/12/07 04:36:35;;;;;;;8.05;0.60;;;3.00;99.90;;;;;;4944018;29;20457;-60
2022/12/07 04:39:02;;;;;;;5.22;0.80;;;3.20;99.90;;;;;;4944681;28;20050;-60
2022/12/07 04:41:27;;;;;;;5.40;0.80;;;2.80;99.90;;;;;;4944728;28;20047;-60
2022/12/07 04:43:55;;;;;;;7.05;0.80;;;3.70;99.90;;;;;;4942962;29;20043;-61
2022/12/07 04:46:21;;;;;;;5.93;0.77;;;3.10;99.90;;;;;;4943012;28;20054;-60
2022/12/07 04:48:46;;;;;;;4.05;0.82;;;3.10;99.90;;;;;;4944557;28;20039;-61
2022/12/07 04:51:13;;;;;;;6.22;0.60;;;3.50;99.90;;;;;;4944882;29;20105;-61
2022/12/07 04:53:39;;;;;;;5.03;0.52;;;2.90;99.90;;;;;;4944475;28;20053;-61
2022/12/07 04:56:04;;;;;;;4.70;0.75;;;3.30;99.90;;;;;;4943650;29;20051;-60
2022/12/07 04:58:30;;;;;;;5.85;0.95;;;3.00;99.90;;;;;;4944454;29;20039;-61
2022/12/07 05:00:55;;;;;;;3.53;0.70;;;2.90;99.90;;;;;;4958532;28;20084;-62
2022/12/07 05:03:21;;;;;;;7.78;0.75;;;3.30;99.90;;;;;;4943836;29;20070;-60
2022/12/07 05:05:47;;;;;;;7.05;1.02;;;3.50;99.90;;;;;;4954724;28;20047;-60
2022/12/07 05:08:13;;;;;;;7.45;0.70;;;3.80;99.90;;;;;;4944775;29;20098;-62
2022/12/07 05:10:38;;;;;;;6.15;0.85;;;3.90;99.90;;;;;;4944039;29;20051;-61
2022/12/07 05:13:04;;;;;;;6.15;0.88;;;3.10;99.90;;;;;;4944116;29;20483;-58
2022/12/07 05:15:29;;;;;;;5.15;0.80;;;3.60;99.90;;;;;;4943686;29;20466;-61
2022/12/07 05:17:55;;;;;;;6.93;1.40;;;3.30;99.90;;;;;;4942130;29;20087;-60
2022/12/07 05:20:21;;;;;;;8.95;1.40;;;3.90;99.90;;;;;;4944160;29;20046;-61
2022/12/07 05:22:47;;;;;;;5.70;0.98;;;4.10;99.90;;;;;;4942587;29;20060;-62
2022/12/07 05:25:12;;;;;;;10.15;1.10;;;3.80;99.90;;;;;;4949715;28;20051;-61
2022/12/07 05:27:38;;;;;;;6.22;1.00;;;3.10;99.90;;;;;;4944235;28;20101;-62
2022/12/07 05:30:05;;;;;;;5.85;0.98;;;3.00;99.90;;;;;;4943829;28;20490;-61
2022/12/07 05:32:30;;;;;;;7.15;1.00;;;3.20;99.90;;;;;;4942393;28;20107;-59
2022/12/07 05:34:56;;;;;;;11.23;1.23;;;3.60;99.90;;;;;;4944271;28;20800;-59
2022/12/07 05:37:22;;;;;;;7.25;1.20;;;3.60;99.90;;;;;;4944290;28;20046;-60
2022/12/07 05:39:47;;;;;;;10.18;1.50;;;3.00;99.90;;;;;;4944334;28;20179;-61
2022/12/07 05:42:13;;;;;;;8.13;0.98;;;2.80;99.90;;;;;;4942954;28;20031;-61
2022/12/07 05:44:46;;;;;;;9.73;1.15;;;3.00;99.90;;;;;;4943603;28;20043;-61
2022/12/07 05:47:13;;;;;;;10.30;1.10;;;3.00;99.90;;;;;;4942916;28;20047;-61
2022/12/07 05:49:39;;;;;;;10.40;1.40;;;3.00;99.90;;;;;;4942672;29;20043;-60
2022/12/07 05:52:05;;;;;;;10.60;1.23;;;3.30;99.90;;;;;;4942893;29;20214;-61
2022/12/07 05:54:31;;;;;;;8.23;1.35;;;3.10;99.90;;;;;;4944143;28;20039;-60
2022/12/07 05:56:56;;;;;;;6.53;0.90;;;2.90;99.90;;;;;;4943785;28;20070;-61
2022/12/07 05:59:22;;;;;;;9.13;1.23;;;2.90;99.90;;;;;;4945417;28;20043;-61
2022/12/07 06:01:59;;;;;;;5.18;0.90;;;2.80;99.90;;;;;;4947199;28;20544;-61
2022/12/07 06:04:28;;;;;;;4.00;0.77;;;3.50;99.90;;;;;;4949788;28;20047;-60
2022/12/07 06:06:54;;;;;;;7.60;1.35;;;3.10;99.90;;;;;;4955107;28;20039;-61
2022/12/07 06:09:21;;;;;;;5.72;0.68;;;3.90;99.90;;;;;;4947254;28;20062;-61
2022/12/07 06:14:32;;;;;;;6.70;0.80;;;2.90;99.90;;;;;;4947569;28;20062;-61
2022/12/07 06:16:58;;;;;;;8.73;1.15;;;3.00;99.90;;;;;;4946502;29;20441;-60
2022/12/07 06:19:23;;;;;;;7.45;1.08;;;3.90;99.90;;;;;;4947122;28;20043;-62
2022/12/07 06:21:49;;;;;;;7.50;1.10;;;2.90;99.90;;;;;;4947017;29;20074;-61
2022/12/07 06:24:16;;;;;;;2.95;0.75;;;3.30;99.90;;;;;;4946948;28;20043;-61
2022/12/07 06:26:42;;;;;;;10.35;2.47;;;3.10;99.90;;;;;;4947000;28;20055;-61
2022/12/07 06:29:08;;;;;;;9.05;1.73;;;3.40;99.90;;;;;;4947388;28;20047;-60
2022/12/07 06:31:35;;;;;;;7.43;1.90;;;2.50;99.90;;;;;;4945740;29;20054;-60
2022/12/07 06:34:03;;;;;;;6.95;1.70;;;2.60;99.90;;;;;;4947445;28;20126;-60
2022/12/07 06:36:29;;;;;;;5.40;1.58;;;3.00;99.90;;;;;;4947258;28;20036;-60
2022/12/07 06:38:55;;;;;;;8.55;1.63;;;2.60;99.90;;;;;;4947067;28;20623;-59
2022/12/07 06:41:21;;;;;;;9.05;1.40;;;2.70;99.90;;;;;;4947167;28;20043;-61
2022/12/07 06:43:47;;;;;;;7.38;1.05;;;2.80;99.90;;;;;;4945312;29;20478;-61
2022/12/07 06:46:14;;;;;;;12.15;2.00;;;2.80;99.90;;;;;;4946226;28;20055;-60
2022/12/07 06:48:40;;;;;;;9.65;1.30;;;2.50;99.90;;;;;;4945815;28;20051;-60
2022/12/07 06:51:06;;;;;;;11.23;1.50;;;2.70;99.90;;;;;;4945864;28;20142;-59
2022/12/07 06:53:31;;;;;;;7.32;1.58;;;3.50;99.90;;;;;;4944378;29;20114;-60
2022/12/07 06:55:57;;;;;;;9.35;1.50;;;2.70;99.90;;;;;;4945699;29;20031;-60
2022/12/07 06:58:23;;;;;;;7.80;1.33;;;2.70;99.90;;;;;;4945051;28;20058;-61
2022/12/07 07:00:50;;;;;;;9.18;2.10;;;2.60;99.90;;;;;;4944749;29;20079;-60
2022/12/07 07:03:16;;;;;;;10.57;2.08;;;2.80;99.90;;;;;;4945684;28;20565;-60
2022/12/07 07:05:42;;;;;;;9.13;1.75;;;2.60;99.90;;;;;;4954467;28;20050;-61
2022/12/07 07:08:08;;;;;;;10.35;1.90;;;2.80;99.90;;;;;;4944950;28;20201;-59
2022/12/07 07:10:34;;;;;;;9.65;2.05;;;3.60;99.90;;;;;;4943306;28;20063;-61
2022/12/07 07:12:59;;;;;;;10.88;1.75;;;3.00;99.90;;;;;;4945202;28;20135;-60
2022/12/07 07:15:25;;;;;;;9.73;2.42;;;2.80;99.90;;;;;;4944829;29;20130;-63
2022/12/07 07:17:51;;;;;;;15.73;2.30;;;2.90;99.90;;;;;;4945891;29;20043;-63
2022/12/07 07:20:17;;;;;;;15.65;2.63;;;3.20;99.90;;;;;;4946594;29;20089;-63
2022/12/07 07:22:42;;;;;;;9.52;2.08;;;2.60;99.90;;;;;;4946602;28;20059;-63
2022/12/07 07:25:08;;;;;;;9.45;1.60;;;2.60;99.90;;;;;;4944891;29;20051;-63
2022/12/07 07:27:34;;;;;;;8.57;2.47;;;2.50;99.90;;;;;;4946111;28;20047;-63
2022/12/07 07:30:00;;;;;;;9.75;2.35;;;2.50;99.90;;;;;;4944683;29;20050;-63
2022/12/07 07:32:25;;;;;;;13.07;3.10;;;2.40;99.90;;;;;;4945377;29;20123;-63
2022/12/07 07:34:51;;;;;;;16.17;2.30;;;3.20;99.90;;;;;;4945560;28;20083;-63
2022/12/07 07:37:17;;;;;;;10.25;2.35;;;2.10;99.90;;;;;;4945952;29;20061;-63
2022/12/07 07:39:43;;;;;;;14.90;2.42;;;2.30;99.90;;;;;;4945457;28;20051;-63
2022/12/07 07:42:09;;;;;;;11.70;1.92;;;2.40;99.90;;;;;;4944302;29;20150;-63
2022/12/07 07:44:35;;;;;;;13.38;2.10;;;2.70;99.90;;;;;;4944455;28;20126;-64
2022/12/07 07:47:00;;;;;;;10.75;2.17;;;3.00;99.90;;;;;;4945124;28;20058;-61
2022/12/07 07:49:26;;;;;;;11.18;1.67;;;2.90;99.90;;;;;;4945804;28;20058;-60
2022/12/07 07:51:52;;;;;;;6.22;1.13;;;2.80;99.90;;;;;;4945268;28;20044;-61
2022/12/07 07:54:18;;;;;;;6.63;1.50;;;2.50;99.90;;;;;;4945101;29;20043;-61
2022/12/07 07:56:43;;;;;;;11.57;1.60;;;3.50;99.90;;;;;;4945445;29;20051;-61
2022/12/07 07:59:09;;;;;;;9.68;1.75;;;2.70;99.90;;;;;;4944273;29;20565;-61
2022/12/07 08:01:35;;;;;;;9.18;1.38;;;2.60;99.90;;;;;;4943949;29;20552;-61
2022/12/07 08:04:01;;;;;;;8.98;1.70;;;2.80;99.90;;;;;;4947861;28;20134;-61
2022/12/07 08:06:26;;;;;;;10.18;1.30;;;2.60;99.90;;;;;;4953879;28;20039;-61
2022/12/07 08:08:52;;;;;;;7.78;1.25;;;3.20;99.90;;;;;;4943481;29;20055;-60
2022/12/07 08:11:18;;;;;;;10.80;1.40;;;3.60;99.90;;;;;;4944738;29;20044;-61
2022/12/07 08:13:49;;;;;;;7.80;1.70;;;3.10;99.90;;;;;;4945325;28;20047;-61
2022/12/07 08:16:15;;;;;;;6.65;1.20;;;2.90;99.90;;;;;;4944807;28;20039;-61
2022/12/07 08:18:41;;;;;;;9.55;1.42;;;3.80;99.90;;;;;;4945142;28;20130;-61
2022/12/07 08:21:11;;;;;;;7.75;1.23;;;3.90;99.90;;;;;;4943374;28;20043;-61
2022/12/07 08:23:37;;;;;;;5.57;1.00;;;3.50;99.90;;;;;;4945152;28;20058;-61
2022/12/07 08:26:05;;;;;;;5.80;1.23;;;3.30;99.90;;;;;;4944452;28;20043;-61
2022/12/07 08:28:31;;;;;;;9.48;1.55;;;3.00;99.90;;;;;;4944002;28;20517;-61
2022/12/07 08:31:08;;;;;;;8.55;1.70;;;3.70;99.90;;;;;;4944537;28;20394;-61
2022/12/07 08:33:34;;;;;;;13.07;1.50;;;3.00;99.90;;;;;;4945064;28;20419;-61
2022/12/07 08:36:03;;;;;;;12.60;2.42;;;3.10;99.90;;;;;;4942888;29;20396;-61
2022/12/07 08:38:28;;;;;;;10.07;1.83;;;3.30;99.90;;;;;;4944927;28;20113;-61
2022/12/07 08:40:58;;;;;;;11.30;1.48;;;3.50;99.90;;;;;;4942917;29;20518;-60
2022/12/07 08:43:24;;;;;;;8.85;2.00;;;3.10;99.90;;;;;;4943662;28;20045;-61
2022/12/07 08:46:16;;;;;;;6.38;1.25;;;3.70;99.90;;;;;;4943406;28;20522;-61
2022/12/07 08:48:55;;;;;;;10.35;1.58;;;4.20;99.90;;;;;;4943465;28;20055;-61
2022/12/07 08:51:22;;;;;;;8.23;1.48;;;3.80;99.90;;;;;;4944152;28;20438;-61
2022/12/07 08:53:49;;;;;;;7.38;1.80;;;3.50;99.90;;;;;;4943775;28;20094;-61
2022/12/07 08:56:16;;;;;;;8.48;1.50;;;3.50;99.90;;;;;;4944454;28;20048;-61
2022/12/07 08:58:42;;;;;;;11.40;1.45;;;3.50;99.90;;;;;;4943255;28;20039;-60
2022/12/07 09:01:07;;;;;;;10.50;1.60;;;4.30;99.90;;;;;;4943327;28;20047;-61
2022/12/07 09:03:34;;;;;;;10.30;2.00;;;3.50;99.90;;;;;;4943518;28;20078;-61
2022/12/07 09:06:00;;;;;;;10.20;1.60;;;3.80;99.90;;;;;;4956689;28;20058;-61
2022/12/07 09:08:36;;;;;;;5.93;1.17;;;4.20;99.90;;;;;;4963482;28;20046;-61
2022/12/07 09:11:02;;;;;;;8.10;1.55;;;3.80;99.90;;;;;;4963122;28;20067;-61
2022/12/07 09:13:27;;;;;;;8.00;1.63;;;3.70;99.90;;;;;;4962891;28;20053;-62
2022/12/07 09:15:53;;;;;;;5.38;1.15;;;3.60;99.90;;;;;;4962844;28;20039;-63
2022/12/07 09:18:19;;;;;;;6.22;1.17;;;3.60;99.90;;;;;;4963274;28;20053;-62
2022/12/07 09:20:44;;;;;;;8.05;1.55;;;3.60;99.90;;;;;;4961792;28;20129;-61
2022/12/07 09:23:10;;;;;;;7.75;1.40;;;4.00;99.90;;;;;;4962890;28;20114;-61
2022/12/07 09:25:36;;;;;;;8.23;1.83;;;3.80;99.90;;;;;;4963164;28;20122;-62
2022/12/07 09:28:02;;;;;;;8.52;1.35;;;3.80;99.90;;;;;;4978452;28;20047;-61
2022/12/07 09:30:28;;;;;;;7.05;1.52;;;4.00;99.90;;;;;;4962804;28;20501;-62
2022/12/07 09:32:55;;;;;;;7.05;1.23;;;4.40;99.90;;;;;;4964055;28;20042;-64
2022/12/07 09:35:21;;;;;;;7.07;1.50;;;4.50;99.90;;;;;;4966753;28;20474;-63
2022/12/07 09:37:47;;;;;;;9.23;1.73;;;4.90;99.90;;;;;;4967243;28;20039;-62
2022/12/07 09:40:16;;;;;;;5.80;1.30;;;5.20;99.90;;;;;;4967399;28;20668;-62
2022/12/07 09:42:45;;;;;;;7.93;1.58;;;5.90;99.90;;;;;;4965923;28;20042;-62
2022/12/07 09:45:16;;;;;;;10.93;1.58;;;6.20;99.90;;;;;;4965087;28;20085;-67
2022/12/07 09:47:42;;;;;;;6.13;1.35;;;6.50;99.90;;;;;;4966432;28;20098;-67
2022/12/07 09:50:14;;;;;;;5.90;1.13;;;6.80;99.90;;;;;;4966448;28;20102;-67
2022/12/07 09:52:42;;;;;;;5.75;1.27;;;6.70;99.90;;;;;;4966008;28;20057;-67
2022/12/07 09:55:12;;;;;;;16.48;1.92;;;6.80;99.90;;;;;;4965793;28;20568;-66
2022/12/07 09:57:38;;;;;;;8.60;1.35;;;6.50;99.90;;;;;;4965619;28;20778;-69
2022/12/07 10:00:11;;;;;;;9.40;1.67;;;6.30;99.90;;;;;;4966668;28;20039;-67
2022/12/07 10:02:57;;;;;;;7.47;1.40;;;6.50;99.90;;;;;;4966205;28;20043;-66
2022/12/07 10:05:34;;;;;;;6.55;1.20;;;6.60;99.90;;;;;;4959077;28;20109;-66
2022/12/07 10:08:00;;;;;;;7.28;1.65;;;6.20;99.90;;;;;;4947748;28;20450;-70
2022/12/07 10:10:31;;;;;;;8.57;1.65;;;6.00;99.90;;;;;;4946049;28;21000;-62
2022/12/07 10:13:00;;;;;;;7.43;1.30;;;5.90;99.90;;;;;;4962567;28;20383;-63
2022/12/07 10:15:45;;;;;;;9.35;1.90;;;5.50;99.90;;;;;;4946896;28;20043;-63
2022/12/07 10:18:30;;;;;;;7.03;1.70;;;5.60;99.90;;;;;;4947462;29;20082;-65
2022/12/07 10:21:10;;;;;;;7.93;1.40;;;5.80;99.90;;;;;;4947234;28;20055;-62
2022/12/07 10:23:38;;;;;;;11.43;1.75;;;5.80;99.90;;;;;;4947408;29;20048;-63
2022/12/07 10:26:28;;;;;;;8.38;1.40;;;5.60;99.90;;;;;;4947781;28;20055;-63
2022/12/07 10:28:58;;;;;;;9.57;1.58;;;5.40;99.90;;;;;;4946156;29;20054;-63
2022/12/07 10:31:24;;;;;;;8.65;1.50;;;5.70;99.90;;;;;;4945497;29;20043;-63
2022/12/07 10:33:52;;;;;;;8.68;1.70;;;5.60;99.90;;;;;;4946973;28;20360;-63
2022/12/07 10:36:35;;;;;;;8.00;1.60;;;6.00;99.90;;;;;;4945912;28;20045;-63
2022/12/07 10:39:45;;;;;;;6.10;1.40;;;6.30;99.90;;;;;;4946830;28;20047;-64
2022/12/07 10:42:37;;;;;;;9.65;1.75;;;6.70;99.90;;;;;;4890718;29;20063;-63
2022/12/07 10:45:12;;;;;;;7.88;1.52;;;6.90;99.90;;;;;;4942033;28;20143;-63
2022/12/07 10:47:55;;;;;;;7.00;1.27;;;6.80;99.90;;;;;;4946790;28;20058;-63
2022/12/07 10:50:39;;;;;;;9.95;1.48;;;6.40;99.90;;;;;;4946562;28;20391;-63
2022/12/07 10:53:23;;;;;;;7.53;1.20;;;6.20;99.90;;;;;;4947080;29;20094;-63
2022/12/07 10:56:07;;;;;;;7.82;1.58;;;6.20;99.90;;;;;;4945101;29;20039;-64
2022/12/07 10:59:01;;;;;;;8.45;1.77;;;6.10;99.90;;;;;;4945332;29;20055;-63
2022/12/07 11:01:47;;;;;;;9.50;1.45;;;5.90;99.90;;;;;;4945314;29;20620;-63
2022/12/07 11:04:16;;;;;;;8.38;1.35;;;6.00;99.90;;;;;;4946816;28;20046;-64
2022/12/07 11:06:51;;;;;;;5.03;1.38;;;5.90;99.90;;;;;;4954070;28;20538;-64
2022/12/07 11:09:35;;;;;;;;;;;6.10;99.90;;;;;;4945956;29;20065;-64
2022/12/07 11:12:34;;;;;;;6.43;1.27;;;6.10;99.90;;;;;;4944747;29;20408;-64
2022/12/07 11:15:23;;;;;;;8.20;1.60;;;6.80;99.90;;;;;;4944796;28;20541;-64
2022/12/07 11:17:59;;;;;;;5.78;1.48;;;7.40;99.90;;;;;;4927002;29;20059;-64
2022/12/07 11:20:49;;;;;;;5.22;0.90;;;7.70;99.90;;;;;;4945022;29;20137;-64
2022/12/07 11:23:47;;;;;;;6.15;1.02;;;7.90;99.90;;;;;;4946159;29;20292;-64
2022/12/07 11:26:33;;;;;;;9.45;1.35;;;7.70;99.90;;;;;;4943794;29;20056;-64
2022/12/07 11:29:11;;;;;;;6.85;1.05;;;8.30;99.90;;;;;;4928682;29;20058;-64
2022/12/07 11:32:01;;;;;;;7.95;1.20;;;8.60;99.90;;;;;;4945854;28;20094;-64
2022/12/07 11:35:04;;;;;;;4.70;0.90;;;8.50;99.90;;;;;;4945923;28;20043;-64
2022/12/07 11:37:37;;;;;;;4.45;1.02;;;8.40;99.90;;;;;;4945075;29;20126;-64
2022/12/07 11:40:36;;;;;;;6.30;1.00;;;7.70;99.90;;;;;;4945884;28;20250;-64
2022/12/07 11:43:05;;;;;;;6.60;1.00;;;7.50;99.90;;;;;;4945715;28;20043;-64
2022/12/07 11:45:33;;;;;;;7.38;1.30;;;7.40;99.90;;;;;;4944355;28;20094;-64
2022/12/07 11:48:07;;;;;;;7.90;1.10;;;7.30;99.90;;;;;;4944573;28;20051;-64
2022/12/07 11:50:47;;;;;;;5.68;1.27;;;7.30;99.90;;;;;;4945470;28;20520;-64
2022/12/07 11:53:15;;;;;;;6.22;1.13;;;7.60;99.90;;;;;;4945311;28;20147;-59
2022/12/07 11:55:47;;;;;;;5.28;1.40;;;7.60;99.90;;;;;;4942586;28;20054;-58
2022/12/07 11:58:13;;;;;;;6.05;1.15;;;7.70;99.90;;;;;;4945669;29;20039;-58
2022/12/07 12:00:40;;;;;;;7.43;1.30;;;7.60;99.90;;;;;;4944761;29;20117;-57
2022/12/07 12:03:30;;;;;;;8.75;1.50;;;7.10;99.90;;;;;;4945607;28;20043;-58
2022/12/07 12:05:56;;;;;;;7.63;1.50;;;6.80;99.90;;;;;;4952576;28;20062;-58
2022/12/07 12:08:31;;;;;;;7.15;1.52;;;6.80;99.90;;;;;;4963038;28;20126;-59
2022/12/07 12:11:06;;;;;;;8.07;2.50;;;6.60;99.90;;;;;;4963546;28;20091;-59
2022/12/07 12:13:55;;;;;;;7.55;2.03;;;6.40;99.90;;;;;;4964695;28;20042;-59
2022/12/07 12:16:27;;;;;;;7.43;1.88;;;6.20;99.90;;;;;;4954249;28;20078;-58
2022/12/07 12:19:03;;;;;;;7.00;1.60;;;6.00;99.90;;;;;;4964593;28;20046;-59
2022/12/07 12:21:30;;;;;;;6.57;1.63;;;5.90;99.90;;;;;;4963509;28;20058;-59
2022/12/07 12:24:03;;;;;;;6.90;1.33;;;5.90;99.90;;;;;;4964359;28;20038;-58
2022/12/07 12:26:33;;;;;;;7.75;1.60;;;5.70;99.90;;;;;;4963273;28;20070;-57
2022/12/07 12:29:03;;;;;;;6.82;1.73;;;5.60;99.90;;;;;;4963238;28;20520;-58
2022/12/07 12:31:35;;;;;;;6.22;1.35;;;5.50;99.90;;;;;;4963693;28;20345;-57
2022/12/07 12:34:03;;;;;;;7.82;1.42;;;5.40;99.90;;;;;;4945234;28;20360;-58
2022/12/07 12:36:35;;;;;;;8.10;1.60;;;5.50;99.90;;;;;;4945676;28;20122;-57
2022/12/07 12:39:14;;;;;;;10.77;1.95;;;5.40;99.90;;;;;;4960440;28;20049;-57
2022/12/07 12:44:14;;;;;;;6.57;1.50;;;5.50;99.90;;;;;;4963575;28;20051;-56
2022/12/07 12:46:49;;;;;;;5.47;1.35;;;5.20;99.90;;;;;;4962880;28;20129;-57
2022/12/07 12:49:20;;;;;;;6.18;1.30;;;5.10;99.90;;;;;;4962057;28;20043;-57
2022/12/07 12:51:55;;;;;;;4.55;1.25;;;5.20;99.90;;;;;;4962300;28;20418;-58
2022/12/07 12:54:32;;;;;;;5.30;1.00;;;5.20;99.90;;;;;;4952694;28;20844;-57
2022/12/07 12:57:26;;;;;;;6.05;1.73;;;5.30;99.90;;;;;;4942081;28;20043;-56
2022/12/07 12:59:51;;;;;;;4.22;0.88;;;5.20;99.90;;;;;;4943152;29;20134;-56
2022/12/07 13:02:29;;;;;;;7.25;1.40;;;4.90;99.90;;;;;;4942395;28;20118;-57
2022/12/07 13:05:07;;;;;;;8.13;1.30;;;4.80;99.90;;;;;;4947894;28;20047;-57
2022/12/07 13:07:46;;;;;;;6.85;1.08;;;4.80;99.90;;;;;;4946071;28;20043;-58
2022/12/07 13:10:28;;;;;;;8.27;1.52;;;4.70;99.90;;;;;;4942894;28;20066;-56
2022/12/07 13:15:52;;;;;;;8.70;1.48;;;4.60;99.90;;;;;;4942033;29;20050;-57
2022/12/07 13:18:27;;;;;;;7.65;1.10;;;4.60;99.90;;;;;;4941889;28;20085;-56
2022/12/07 13:21:08;;;;;;;4.55;0.90;;;4.50;99.90;;;;;;4941041;29;20047;-55
2022/12/07 13:23:55;;;;;;;6.25;1.30;;;4.40;99.90;;;;;;4943223;29;20055;-56
2022/12/07 13:26:30;;;;;;;5.35;1.25;;;4.60;99.90;;;;;;4941296;29;20055;-56
2022/12/07 13:29:14;;;;;;;6.63;1.13;;;4.80;99.90;;;;;;4943243;28;20047;-58